sensor_id;sensor_type;location;lat;lon;timestamp;P1;durP1;ratioP1;P2;durP2;ratioP2
21777;SDS011;11050;52.222;20.916;2022-10-26T00:01:03;39.35;;;25.63;;
21777;SDS011;11050;52.222;20.916;2022-10-26T00:03:37;39.80;;;24.92;;
21777;SDS011;11050;52.222;20.916;2022-10-26T00:08:43;42.08;;;26.40;;
21777;SDS011;11050;52.222;20.916;2022-10-26T00:11:10;35.25;;;24.52;;
21777;SDS011;11050;52.222;20.916;2022-10-26T00:13:37;36.33;;;24.02;;
21777;SDS011;11050;52.222;20.916;2022-10-26T00:16:08;39.08;;;23.95;;
21777;SDS011;11050;52.222;20.916;2022-10-26T00:18:36;38.78;;;24.20;;
21777;SDS011;11050;52.222;20.916;2022-10-26T00:21:03;36.15;;;24.10;;
21777;SDS011;11050;52.222;20.916;2022-10-26T00:23:31;33.90;;;24.67;;
21777;SDS011;11050;52.222;20.916;2022-10-26T00:25:57;32.38;;;20.90;;
21777;SDS011;11050;52.222;20.916;2022-10-26T00:28:23;35.58;;;24.33;;
21777;SDS011;11050;52.222;20.916;2022-10-26T00:30:49;32.42;;;22.02;;
21777;SDS011;11050;52.222;20.916;2022-10-26T00:33:15;37.42;;;23.23;;
21777;SDS011;11050;52.222;20.916;2022-10-26T00:35:42;31.98;;;21.58;;
21777;SDS011;11050;52.222;20.916;2022-10-26T00:38:08;31.35;;;21.88;;
21777;SDS011;11050;52.222;20.916;2022-10-26T00:40:33;31.73;;;20.77;;
21777;SDS011;11050;52.222;20.916;2022-10-26T00:42:59;33.33;;;21.38;;
21777;SDS011;11050;52.222;20.916;2022-10-26T00:45:26;34.28;;;21.65;;
21777;SDS011;11050;52.222;20.916;2022-10-26T00:47:57;32.53;;;22.13;;
21777;SDS011;11050;52.222;20.916;2022-10-26T00:50:34;36.22;;;23.23;;
21777;SDS011;11050;52.222;20.916;2022-10-26T00:53:06;38.88;;;24.52;;
21777;SDS011;11050;52.222;20.916;2022-10-26T00:55:37;32.25;;;22.35;;
21777;SDS011;11050;52.222;20.916;2022-10-26T00:58:10;36.45;;;23.85;;
21777;SDS011;11050;52.222;20.916;2022-10-26T01:00:36;33.75;;;21.73;;
21777;SDS011;11050;52.222;20.916;2022-10-26T01:03:05;34.78;;;22.02;;
21777;SDS011;11050;52.222;20.916;2022-10-26T01:05:34;33.75;;;23.52;;
21777;SDS011;11050;52.222;20.916;2022-10-26T01:08:04;32.40;;;22.15;;
21777;SDS011;11050;52.222;20.916;2022-10-26T01:10:32;36.55;;;23.02;;
21777;SDS011;11050;52.222;20.916;2022-10-26T01:13:01;33.53;;;22.58;;
21777;SDS011;11050;52.222;20.916;2022-10-26T01:15:37;33.20;;;22.88;;
21777;SDS011;11050;52.222;20.916;2022-10-26T01:18:35;34.72;;;20.80;;
21777;SDS011;11050;52.222;20.916;2022-10-26T01:21:20;32.08;;;21.70;;
21777;SDS011;11050;52.222;20.916;2022-10-26T01:27:17;33.55;;;22.40;;
21777;SDS011;11050;52.222;20.916;2022-10-26T01:35:43;32.63;;;21.90;;
21777;SDS011;11050;52.222;20.916;2022-10-26T01:38:25;37.38;;;23.98;;
21777;SDS011;11050;52.222;20.916;2022-10-26T01:41:19;38.60;;;24.05;;
21777;SDS011;11050;52.222;20.916;2022-10-26T01:44:03;33.45;;;23.25;;
21777;SDS011;11050;52.222;20.916;2022-10-26T01:46:38;35.10;;;23.58;;
21777;SDS011;11050;52.222;20.916;2022-10-26T01:49:10;32.75;;;22.35;;
21777;SDS011;11050;52.222;20.916;2022-10-26T01:51:39;35.95;;;22.50;;
21777;SDS011;11050;52.222;20.916;2022-10-26T01:54:08;32.88;;;22.40;;
21777;SDS011;11050;52.222;20.916;2022-10-26T01:56:38;34.88;;;22.92;;
21777;SDS011;11050;52.222;20.916;2022-10-26T02:13:32;39.15;;;21.65;;
21777;SDS011;11050;52.222;20.916;2022-10-26T02:19:18;34.22;;;22.77;;
21777;SDS011;11050;52.222;20.916;2022-10-26T02:22:30;29.23;;;21.02;;
21777;SDS011;11050;52.222;20.916;2022-10-26T02:25:06;31.35;;;21.05;;
21777;SDS011;11050;52.222;20.916;2022-10-26T02:27:40;39.97;;;20.95;;
21777;SDS011;11050;52.222;20.916;2022-10-26T02:30:28;34.42;;;20.25;;
21777;SDS011;11050;52.222;20.916;2022-10-26T02:32:54;34.08;;;21.73;;
21777;SDS011;11050;52.222;20.916;2022-10-26T02:35:24;35.10;;;20.40;;
21777;SDS011;11050;52.222;20.916;2022-10-26T02:37:56;39.97;;;23.33;;
21777;SDS011;11050;52.222;20.916;2022-10-26T02:40:26;35.42;;;23.20;;
21777;SDS011;11050;52.222;20.916;2022-10-26T02:42:54;32.42;;;21.83;;
21777;SDS011;11050;52.222;20.916;2022-10-26T02:45:36;34.22;;;22.55;;
21777;SDS011;11050;52.222;20.916;2022-10-26T02:48:15;34.20;;;22.75;;
21777;SDS011;11050;52.222;20.916;2022-10-26T02:53:53;35.03;;;23.73;;
21777;SDS011;11050;52.222;20.916;2022-10-26T02:56:39;38.45;;;24.48;;
21777;SDS011;11050;52.222;20.916;2022-10-26T02:59:18;38.75;;;25.00;;
21777;SDS011;11050;52.222;20.916;2022-10-26T03:01:48;43.60;;;25.58;;
21777;SDS011;11050;52.222;20.916;2022-10-26T03:04:17;38.58;;;24.27;;
21777;SDS011;11050;52.222;20.916;2022-10-26T03:06:50;39.40;;;25.85;;
21777;SDS011;11050;52.222;20.916;2022-10-26T03:09:17;43.30;;;27.13;;
21777;SDS011;11050;52.222;20.916;2022-10-26T03:11:43;45.72;;;26.05;;
21777;SDS011;11050;52.222;20.916;2022-10-26T03:14:09;46.03;;;26.52;;
21777;SDS011;11050;52.222;20.916;2022-10-26T03:16:34;44.53;;;28.27;;
21777;SDS011;11050;52.222;20.916;2022-10-26T03:19:00;41.78;;;26.48;;
21777;SDS011;11050;52.222;20.916;2022-10-26T03:21:25;48.35;;;28.90;;
21777;SDS011;11050;52.222;20.916;2022-10-26T03:23:52;38.17;;;23.50;;
21777;SDS011;11050;52.222;20.916;2022-10-26T03:26:18;43.08;;;26.75;;
21777;SDS011;11050;52.222;20.916;2022-10-26T03:28:44;41.03;;;26.80;;
21777;SDS011;11050;52.222;20.916;2022-10-26T03:31:10;40.47;;;26.08;;
21777;SDS011;11050;52.222;20.916;2022-10-26T03:33:36;37.83;;;25.60;;
21777;SDS011;11050;52.222;20.916;2022-10-26T03:36:01;36.22;;;24.20;;
21777;SDS011;11050;52.222;20.916;2022-10-26T03:38:27;42.97;;;24.83;;
21777;SDS011;11050;52.222;20.916;2022-10-26T03:40:53;46.22;;;27.85;;
21777;SDS011;11050;52.222;20.916;2022-10-26T03:43:19;42.80;;;27.40;;
21777;SDS011;11050;52.222;20.916;2022-10-26T03:45:45;43.40;;;26.45;;
21777;SDS011;11050;52.222;20.916;2022-10-26T03:48:11;43.63;;;26.88;;
21777;SDS011;11050;52.222;20.916;2022-10-26T03:50:37;44.03;;;25.88;;
21777;SDS011;11050;52.222;20.916;2022-10-26T03:53:03;41.85;;;27.02;;
21777;SDS011;11050;52.222;20.916;2022-10-26T03:55:30;49.65;;;27.35;;
21777;SDS011;11050;52.222;20.916;2022-10-26T03:57:55;44.35;;;27.15;;
21777;SDS011;11050;52.222;20.916;2022-10-26T04:00:21;46.65;;;26.60;;
21777;SDS011;11050;52.222;20.916;2022-10-26T04:02:52;47.50;;;27.63;;
21777;SDS011;11050;52.222;20.916;2022-10-26T04:05:22;44.05;;;26.55;;
21777;SDS011;11050;52.222;20.916;2022-10-26T04:07:56;45.80;;;27.33;;
21777;SDS011;11050;52.222;20.916;2022-10-26T04:10:27;42.08;;;26.33;;
21777;SDS011;11050;52.222;20.916;2022-10-26T04:12:54;42.88;;;25.80;;
21777;SDS011;11050;52.222;20.916;2022-10-26T04:15:20;38.85;;;24.52;;
21777;SDS011;11050;52.222;20.916;2022-10-26T04:17:47;38.20;;;25.00;;
21777;SDS011;11050;52.222;20.916;2022-10-26T04:20:12;41.88;;;25.35;;
21777;SDS011;11050;52.222;20.916;2022-10-26T04:22:39;41.78;;;25.10;;
21777;SDS011;11050;52.222;20.916;2022-10-26T04:25:05;37.30;;;24.23;;
21777;SDS011;11050;52.222;20.916;2022-10-26T04:27:31;39.28;;;24.38;;
21777;SDS011;11050;52.222;20.916;2022-10-26T04:29:57;43.13;;;26.95;;
21777;SDS011;11050;52.222;20.916;2022-10-26T04:32:23;37.33;;;23.73;;
21777;SDS011;11050;52.222;20.916;2022-10-26T04:34:49;39.28;;;24.08;;
21777;SDS011;11050;52.222;20.916;2022-10-26T04:37:17;39.25;;;25.50;;
21777;SDS011;11050;52.222;20.916;2022-10-26T04:39:43;35.45;;;23.85;;
21777;SDS011;11050;52.222;20.916;2022-10-26T04:42:08;36.90;;;22.75;;
21777;SDS011;11050;52.222;20.916;2022-10-26T04:44:34;41.55;;;24.83;;
21777;SDS011;11050;52.222;20.916;2022-10-26T04:47:00;43.88;;;26.30;;
21777;SDS011;11050;52.222;20.916;2022-10-26T04:49:25;43.95;;;26.20;;
21777;SDS011;11050;52.222;20.916;2022-10-26T04:51:51;41.38;;;24.35;;
21777;SDS011;11050;52.222;20.916;2022-10-26T04:54:17;43.78;;;25.38;;
21777;SDS011;11050;52.222;20.916;2022-10-26T04:56:42;45.08;;;25.10;;
21777;SDS011;11050;52.222;20.916;2022-10-26T04:59:08;39.20;;;25.05;;
21777;SDS011;11050;52.222;20.916;2022-10-26T05:01:34;46.38;;;25.77;;
21777;SDS011;11050;52.222;20.916;2022-10-26T05:03:59;42.97;;;23.73;;
21777;SDS011;11050;52.222;20.916;2022-10-26T05:06:25;42.70;;;25.83;;
21777;SDS011;11050;52.222;20.916;2022-10-26T05:08:51;48.63;;;26.35;;
21777;SDS011;11050;52.222;20.916;2022-10-26T05:11:17;44.45;;;26.38;;
21777;SDS011;11050;52.222;20.916;2022-10-26T05:13:42;44.47;;;26.45;;
21777;SDS011;11050;52.222;20.916;2022-10-26T05:16:08;43.67;;;25.42;;
21777;SDS011;11050;52.222;20.916;2022-10-26T05:18:34;45.15;;;23.00;;
21777;SDS011;11050;52.222;20.916;2022-10-26T05:20:59;40.15;;;23.33;;
21777;SDS011;11050;52.222;20.916;2022-10-26T05:23:25;38.60;;;23.05;;
21777;SDS011;11050;52.222;20.916;2022-10-26T05:25:51;43.03;;;22.60;;
21777;SDS011;11050;52.222;20.916;2022-10-26T05:28:18;38.80;;;23.27;;
21777;SDS011;11050;52.222;20.916;2022-10-26T05:30:44;40.97;;;22.23;;
21777;SDS011;11050;52.222;20.916;2022-10-26T05:33:11;37.13;;;21.98;;
21777;SDS011;11050;52.222;20.916;2022-10-26T05:35:38;40.30;;;22.15;;
21777;SDS011;11050;52.222;20.916;2022-10-26T05:38:16;40.17;;;22.38;;
21777;SDS011;11050;52.222;20.916;2022-10-26T05:40:48;40.92;;;21.35;;
21777;SDS011;11050;52.222;20.916;2022-10-26T05:43:16;39.30;;;21.80;;
21777;SDS011;11050;52.222;20.916;2022-10-26T05:45:43;38.20;;;21.00;;
21777;SDS011;11050;52.222;20.916;2022-10-26T05:48:09;39.85;;;23.10;;
21777;SDS011;11050;52.222;20.916;2022-10-26T05:50:35;40.65;;;22.60;;
21777;SDS011;11050;52.222;20.916;2022-10-26T05:53:01;43.35;;;22.42;;
21777;SDS011;11050;52.222;20.916;2022-10-26T05:55:27;36.55;;;22.38;;
21777;SDS011;11050;52.222;20.916;2022-10-26T05:57:54;45.67;;;24.38;;
21777;SDS011;11050;52.222;20.916;2022-10-26T06:00:21;39.10;;;21.75;;
21777;SDS011;11050;52.222;20.916;2022-10-26T06:02:57;40.35;;;23.58;;
21777;SDS011;11050;52.222;20.916;2022-10-26T06:05:52;34.78;;;20.65;;
21777;SDS011;11050;52.222;20.916;2022-10-26T06:08:24;40.38;;;22.25;;
21777;SDS011;11050;52.222;20.916;2022-10-26T06:10:53;37.40;;;21.30;;
21777;SDS011;11050;52.222;20.916;2022-10-26T06:13:23;36.70;;;21.85;;
21777;SDS011;11050;52.222;20.916;2022-10-26T06:15:59;38.55;;;20.92;;
21777;SDS011;11050;52.222;20.916;2022-10-26T06:24:34;41.80;;;20.85;;
21777;SDS011;11050;52.222;20.916;2022-10-26T06:30:08;32.33;;;18.73;;
21777;SDS011;11050;52.222;20.916;2022-10-26T06:32:36;31.23;;;18.00;;
21777;SDS011;11050;52.222;20.916;2022-10-26T06:37:49;33.45;;;18.60;;
21777;SDS011;11050;52.222;20.916;2022-10-26T06:40:18;36.22;;;20.95;;
21777;SDS011;11050;52.222;20.916;2022-10-26T06:42:45;30.95;;;19.15;;
21777;SDS011;11050;52.222;20.916;2022-10-26T06:45:12;39.80;;;20.60;;
21777;SDS011;11050;52.222;20.916;2022-10-26T06:47:50;37.15;;;20.67;;
21777;SDS011;11050;52.222;20.916;2022-10-26T06:55:50;38.05;;;21.15;;
21777;SDS011;11050;52.222;20.916;2022-10-26T06:58:20;35.22;;;22.00;;
21777;SDS011;11050;52.222;20.916;2022-10-26T07:00:53;37.65;;;22.30;;
21777;SDS011;11050;52.222;20.916;2022-10-26T07:03:20;43.80;;;22.77;;
21777;SDS011;11050;52.222;20.916;2022-10-26T07:05:47;35.25;;;21.35;;
21777;SDS011;11050;52.222;20.916;2022-10-26T07:08:13;39.83;;;22.88;;
21777;SDS011;11050;52.222;20.916;2022-10-26T07:10:39;37.97;;;20.83;;
21777;SDS011;11050;52.222;20.916;2022-10-26T07:13:06;34.88;;;21.38;;
21777;SDS011;11050;52.222;20.916;2022-10-26T07:15:34;33.83;;;19.45;;
21777;SDS011;11050;52.222;20.916;2022-10-26T07:18:02;31.55;;;18.48;;
21777;SDS011;11050;52.222;20.916;2022-10-26T07:20:30;29.30;;;17.05;;
21777;SDS011;11050;52.222;20.916;2022-10-26T07:23:01;38.95;;;19.55;;
21777;SDS011;11050;52.222;20.916;2022-10-26T07:25:27;36.30;;;19.88;;
21777;SDS011;11050;52.222;20.916;2022-10-26T07:27:56;36.65;;;19.20;;
21777;SDS011;11050;52.222;20.916;2022-10-26T07:30:23;33.05;;;20.10;;
21777;SDS011;11050;52.222;20.916;2022-10-26T07:33:10;35.47;;;20.73;;
21777;SDS011;11050;52.222;20.916;2022-10-26T07:35:38;34.08;;;18.67;;
21777;SDS011;11050;52.222;20.916;2022-10-26T07:38:05;31.50;;;18.55;;
21777;SDS011;11050;52.222;20.916;2022-10-26T07:40:31;33.00;;;17.42;;
21777;SDS011;11050;52.222;20.916;2022-10-26T07:42:57;31.52;;;18.27;;
21777;SDS011;11050;52.222;20.916;2022-10-26T07:45:27;29.60;;;17.55;;
21777;SDS011;11050;52.222;20.916;2022-10-26T07:47:53;30.90;;;17.55;;
21777;SDS011;11050;52.222;20.916;2022-10-26T07:50:20;27.70;;;16.98;;
21777;SDS011;11050;52.222;20.916;2022-10-26T07:52:47;28.73;;;16.67;;
21777;SDS011;11050;52.222;20.916;2022-10-26T07:55:12;25.45;;;15.55;;
21777;SDS011;11050;52.222;20.916;2022-10-26T07:57:38;28.88;;;16.17;;
21777;SDS011;11050;52.222;20.916;2022-10-26T08:00:05;30.35;;;15.50;;
21777;SDS011;11050;52.222;20.916;2022-10-26T08:02:33;22.92;;;14.23;;
21777;SDS011;11050;52.222;20.916;2022-10-26T08:05:00;21.65;;;14.13;;
21777;SDS011;11050;52.222;20.916;2022-10-26T08:07:26;21.33;;;12.88;;
21777;SDS011;11050;52.222;20.916;2022-10-26T08:09:52;24.02;;;13.38;;
21777;SDS011;11050;52.222;20.916;2022-10-26T08:12:18;24.58;;;14.45;;
21777;SDS011;11050;52.222;20.916;2022-10-26T08:14:44;26.08;;;15.02;;
21777;SDS011;11050;52.222;20.916;2022-10-26T08:17:10;24.08;;;15.70;;
21777;SDS011;11050;52.222;20.916;2022-10-26T08:19:36;26.02;;;14.75;;
21777;SDS011;11050;52.222;20.916;2022-10-26T08:22:02;25.15;;;15.27;;
21777;SDS011;11050;52.222;20.916;2022-10-26T08:24:28;25.20;;;15.70;;
21777;SDS011;11050;52.222;20.916;2022-10-26T08:26:54;31.67;;;16.05;;
21777;SDS011;11050;52.222;20.916;2022-10-26T08:29:20;30.20;;;17.00;;
21777;SDS011;11050;52.222;20.916;2022-10-26T08:31:46;32.00;;;16.38;;
21777;SDS011;11050;52.222;20.916;2022-10-26T08:34:13;31.02;;;17.30;;
21777;SDS011;11050;52.222;20.916;2022-10-26T08:36:39;31.90;;;18.10;;
21777;SDS011;11050;52.222;20.916;2022-10-26T08:39:05;32.47;;;18.02;;
21777;SDS011;11050;52.222;20.916;2022-10-26T08:44:50;30.02;;;16.23;;
21777;SDS011;11050;52.222;20.916;2022-10-26T08:47:24;29.67;;;17.42;;
21777;SDS011;11050;52.222;20.916;2022-10-26T08:50:16;29.67;;;16.77;;
21777;SDS011;11050;52.222;20.916;2022-10-26T08:52:50;33.90;;;19.65;;
21777;SDS011;11050;52.222;20.916;2022-10-26T08:55:32;28.55;;;18.17;;
21777;SDS011;11050;52.222;20.916;2022-10-26T08:58:06;45.75;;;18.85;;
21777;SDS011;11050;52.222;20.916;2022-10-26T09:00:41;30.60;;;17.40;;
21777;SDS011;11050;52.222;20.916;2022-10-26T09:03:16;26.27;;;16.33;;
21777;SDS011;11050;52.222;20.916;2022-10-26T09:05:55;28.85;;;16.42;;
21777;SDS011;11050;52.222;20.916;2022-10-26T09:17:21;29.70;;;17.30;;
21777;SDS011;11050;52.222;20.916;2022-10-26T09:25:58;27.08;;;17.42;;
21777;SDS011;11050;52.222;20.916;2022-10-26T09:28:29;27.17;;;16.30;;
21777;SDS011;11050;52.222;20.916;2022-10-26T09:31:00;26.88;;;15.63;;
21777;SDS011;11050;52.222;20.916;2022-10-26T09:33:28;25.30;;;16.05;;
21777;SDS011;11050;52.222;20.916;2022-10-26T09:36:05;31.58;;;16.92;;
21777;SDS011;11050;52.222;20.916;2022-10-26T09:38:42;26.42;;;17.33;;
21777;SDS011;11050;52.222;20.916;2022-10-26T09:43:49;27.15;;;16.48;;
21777;SDS011;11050;52.222;20.916;2022-10-26T09:46:30;25.20;;;15.55;;
21777;SDS011;11050;52.222;20.916;2022-10-26T09:49:32;24.73;;;15.77;;
21777;SDS011;11050;52.222;20.916;2022-10-26T09:52:12;29.27;;;16.25;;
21777;SDS011;11050;52.222;20.916;2022-10-26T09:54:39;28.00;;;16.92;;
21777;SDS011;11050;52.222;20.916;2022-10-26T09:57:05;34.53;;;18.02;;
21777;SDS011;11050;52.222;20.916;2022-10-26T09:59:34;25.85;;;17.42;;
21777;SDS011;11050;52.222;20.916;2022-10-26T10:02:30;26.27;;;16.58;;
21777;SDS011;11050;52.222;20.916;2022-10-26T10:05:46;28.65;;;17.65;;
21777;SDS011;11050;52.222;20.916;2022-10-26T10:10:54;24.50;;;16.38;;
21777;SDS011;11050;52.222;20.916;2022-10-26T10:13:35;25.38;;;15.13;;
21777;SDS011;11050;52.222;20.916;2022-10-26T10:18:31;22.67;;;15.35;;
21777;SDS011;11050;52.222;20.916;2022-10-26T10:20:57;28.58;;;15.48;;
21777;SDS011;11050;52.222;20.916;2022-10-26T10:23:28;29.65;;;14.35;;
21777;SDS011;11050;52.222;20.916;2022-10-26T10:26:04;21.98;;;12.93;;
21777;SDS011;11050;52.222;20.916;2022-10-26T10:28:37;28.00;;;15.18;;
21777;SDS011;11050;52.222;20.916;2022-10-26T10:31:20;23.67;;;15.05;;
21777;SDS011;11050;52.222;20.916;2022-10-26T10:33:51;26.10;;;14.07;;
21777;SDS011;11050;52.222;20.916;2022-10-26T10:36:18;27.85;;;14.68;;
21777;SDS011;11050;52.222;20.916;2022-10-26T10:38:48;25.85;;;15.40;;
21777;SDS011;11050;52.222;20.916;2022-10-26T10:44:07;23.75;;;15.68;;
21777;SDS011;11050;52.222;20.916;2022-10-26T10:46:49;24.08;;;16.40;;
21777;SDS011;11050;52.222;20.916;2022-10-26T10:49:23;23.95;;;15.27;;
21777;SDS011;11050;52.222;20.916;2022-10-26T10:51:52;27.38;;;16.08;;
21777;SDS011;11050;52.222;20.916;2022-10-26T10:59:57;29.55;;;17.15;;
21777;SDS011;11050;52.222;20.916;2022-10-26T11:05:58;21.95;;;15.52;;
21777;SDS011;11050;52.222;20.916;2022-10-26T11:08:38;27.52;;;18.75;;
21777;SDS011;11050;52.222;20.916;2022-10-26T11:14:05;27.65;;;17.50;;
21777;SDS011;11050;52.222;20.916;2022-10-26T11:16:43;28.42;;;18.30;;
21777;SDS011;11050;52.222;20.916;2022-10-26T11:19:20;27.48;;;16.77;;
21777;SDS011;11050;52.222;20.916;2022-10-26T11:21:53;24.63;;;16.58;;
21777;SDS011;11050;52.222;20.916;2022-10-26T11:26:50;28.77;;;17.70;;
21777;SDS011;11050;52.222;20.916;2022-10-26T11:29:46;33.78;;;19.50;;
21777;SDS011;11050;52.222;20.916;2022-10-26T11:36:11;30.45;;;18.70;;
21777;SDS011;11050;52.222;20.916;2022-10-26T11:38:41;29.40;;;18.20;;
21777;SDS011;11050;52.222;20.916;2022-10-26T11:41:30;24.95;;;16.63;;
21777;SDS011;11050;52.222;20.916;2022-10-26T11:44:34;26.40;;;17.38;;
21777;SDS011;11050;52.222;20.916;2022-10-26T11:47:15;26.63;;;17.65;;
21777;SDS011;11050;52.222;20.916;2022-10-26T11:49:52;23.85;;;16.35;;
21777;SDS011;11050;52.222;20.916;2022-10-26T11:52:38;21.13;;;15.50;;
21777;SDS011;11050;52.222;20.916;2022-10-26T11:55:22;26.27;;;15.75;;
21777;SDS011;11050;52.222;20.916;2022-10-26T11:57:49;29.05;;;15.77;;
21777;SDS011;11050;52.222;20.916;2022-10-26T12:00:18;23.00;;;16.75;;
21777;SDS011;11050;52.222;20.916;2022-10-26T12:02:54;27.30;;;16.90;;
21777;SDS011;11050;52.222;20.916;2022-10-26T12:07:57;24.42;;;15.75;;
21777;SDS011;11050;52.222;20.916;2022-10-26T12:10:34;27.70;;;16.48;;
21777;SDS011;11050;52.222;20.916;2022-10-26T12:13:26;24.52;;;16.23;;
21777;SDS011;11050;52.222;20.916;2022-10-26T12:19:13;25.85;;;16.08;;
21777;SDS011;11050;52.222;20.916;2022-10-26T12:22:00;23.92;;;14.50;;
21777;SDS011;11050;52.222;20.916;2022-10-26T12:24:28;21.20;;;14.05;;
21777;SDS011;11050;52.222;20.916;2022-10-26T12:27:02;21.42;;;14.70;;
21777;SDS011;11050;52.222;20.916;2022-10-26T12:29:43;18.80;;;14.30;;
21777;SDS011;11050;52.222;20.916;2022-10-26T12:34:57;22.50;;;15.00;;
21777;SDS011;11050;52.222;20.916;2022-10-26T12:37:31;25.13;;;15.70;;
21777;SDS011;11050;52.222;20.916;2022-10-26T12:40:37;25.02;;;14.82;;
21777;SDS011;11050;52.222;20.916;2022-10-26T12:45:43;18.60;;;13.00;;
21777;SDS011;11050;52.222;20.916;2022-10-26T12:48:21;22.50;;;14.07;;
21777;SDS011;11050;52.222;20.916;2022-10-26T12:56:49;25.65;;;18.08;;
21777;SDS011;11050;52.222;20.916;2022-10-26T12:59:21;27.00;;;17.00;;
21777;SDS011;11050;52.222;20.916;2022-10-26T13:02:30;28.27;;;16.38;;
21777;SDS011;11050;52.222;20.916;2022-10-26T13:08:03;34.80;;;16.33;;
21777;SDS011;11050;52.222;20.916;2022-10-26T13:10:33;30.73;;;15.63;;
21777;SDS011;11050;52.222;20.916;2022-10-26T13:13:04;26.17;;;14.55;;
21777;SDS011;11050;52.222;20.916;2022-10-26T13:15:35;25.45;;;15.95;;
21777;SDS011;11050;52.222;20.916;2022-10-26T13:18:16;24.15;;;14.88;;
21777;SDS011;11050;52.222;20.916;2022-10-26T13:23:36;21.83;;;13.73;;
21777;SDS011;11050;52.222;20.916;2022-10-26T13:26:29;27.50;;;13.73;;
21777;SDS011;11050;52.222;20.916;2022-10-26T13:29:16;20.25;;;12.82;;
21777;SDS011;11050;52.222;20.916;2022-10-26T13:34:13;24.45;;;13.50;;
21777;SDS011;11050;52.222;20.916;2022-10-26T13:39:42;23.73;;;13.50;;
21777;SDS011;11050;52.222;20.916;2022-10-26T13:42:12;21.63;;;13.93;;
21777;SDS011;11050;52.222;20.916;2022-10-26T13:50:15;22.50;;;13.60;;
21777;SDS011;11050;52.222;20.916;2022-10-26T13:52:50;22.05;;;13.85;;
21777;SDS011;11050;52.222;20.916;2022-10-26T13:58:14;19.75;;;13.05;;
21777;SDS011;11050;52.222;20.916;2022-10-26T14:03:32;25.50;;;13.77;;
21777;SDS011;11050;52.222;20.916;2022-10-26T14:05:58;21.77;;;13.43;;
21777;SDS011;11050;52.222;20.916;2022-10-26T14:08:27;21.55;;;12.80;;
21777;SDS011;11050;52.222;20.916;2022-10-26T14:10:56;21.08;;;13.40;;
21777;SDS011;11050;52.222;20.916;2022-10-26T14:13:24;24.02;;;11.82;;
21777;SDS011;11050;52.222;20.916;2022-10-26T14:15:55;16.95;;;12.00;;
21777;SDS011;11050;52.222;20.916;2022-10-26T14:18:26;16.52;;;11.93;;
21777;SDS011;11050;52.222;20.916;2022-10-26T14:20:56;21.25;;;13.02;;
21777;SDS011;11050;52.222;20.916;2022-10-26T14:23:31;17.00;;;11.88;;
21777;SDS011;11050;52.222;20.916;2022-10-26T14:26:17;22.75;;;12.25;;
21777;SDS011;11050;52.222;20.916;2022-10-26T14:28:52;17.92;;;11.98;;
21777;SDS011;11050;52.222;20.916;2022-10-26T14:31:23;17.27;;;12.15;;
21777;SDS011;11050;52.222;20.916;2022-10-26T14:33:56;18.60;;;12.25;;
21777;SDS011;11050;52.222;20.916;2022-10-26T14:42:19;20.20;;;13.90;;
21777;SDS011;11050;52.222;20.916;2022-10-26T14:44:56;22.15;;;14.48;;
21777;SDS011;11050;52.222;20.916;2022-10-26T14:47:25;20.23;;;12.73;;
21777;SDS011;11050;52.222;20.916;2022-10-26T14:49:57;19.67;;;13.02;;
21777;SDS011;11050;52.222;20.916;2022-10-26T14:52:26;22.83;;;12.60;;
21777;SDS011;11050;52.222;20.916;2022-10-26T14:55:00;23.23;;;13.80;;
21777;SDS011;11050;52.222;20.916;2022-10-26T14:57:39;22.13;;;11.98;;
21777;SDS011;11050;52.222;20.916;2022-10-26T15:00:20;19.75;;;12.45;;
21777;SDS011;11050;52.222;20.916;2022-10-26T15:02:53;19.88;;;12.40;;
21777;SDS011;11050;52.222;20.916;2022-10-26T15:05:28;19.90;;;13.30;;
21777;SDS011;11050;52.222;20.916;2022-10-26T15:07:57;20.45;;;12.90;;
21777;SDS011;11050;52.222;20.916;2022-10-26T15:13:19;21.48;;;13.07;;
21777;SDS011;11050;52.222;20.916;2022-10-26T15:15:53;20.45;;;12.77;;
21777;SDS011;11050;52.222;20.916;2022-10-26T15:18:41;23.80;;;12.63;;
21777;SDS011;11050;52.222;20.916;2022-10-26T15:21:43;25.90;;;12.65;;
21777;SDS011;11050;52.222;20.916;2022-10-26T15:24:11;19.70;;;12.27;;
21777;SDS011;11050;52.222;20.916;2022-10-26T15:26:44;27.30;;;12.85;;
21777;SDS011;11050;52.222;20.916;2022-10-26T15:32:18;25.38;;;12.75;;
21777;SDS011;11050;52.222;20.916;2022-10-26T15:37:35;24.15;;;13.57;;
21777;SDS011;11050;52.222;20.916;2022-10-26T15:40:02;21.17;;;13.85;;
21777;SDS011;11050;52.222;20.916;2022-10-26T15:42:28;23.17;;;14.82;;
21777;SDS011;11050;52.222;20.916;2022-10-26T15:44:54;25.73;;;13.52;;
21777;SDS011;11050;52.222;20.916;2022-10-26T15:47:20;20.63;;;13.70;;
21777;SDS011;11050;52.222;20.916;2022-10-26T15:49:53;24.98;;;14.35;;
21777;SDS011;11050;52.222;20.916;2022-10-26T15:52:19;23.67;;;14.15;;
21777;SDS011;11050;52.222;20.916;2022-10-26T15:54:45;24.67;;;13.98;;
21777;SDS011;11050;52.222;20.916;2022-10-26T15:57:11;28.00;;;15.13;;
21777;SDS011;11050;52.222;20.916;2022-10-26T15:59:37;21.45;;;13.50;;
21777;SDS011;11050;52.222;20.916;2022-10-26T16:02:24;32.58;;;15.82;;
21777;SDS011;11050;52.222;20.916;2022-10-26T16:04:49;26.77;;;15.25;;
21777;SDS011;11050;52.222;20.916;2022-10-26T16:07:15;25.63;;;15.25;;
21777;SDS011;11050;52.222;20.916;2022-10-26T16:09:42;28.67;;;15.10;;
21777;SDS011;11050;52.222;20.916;2022-10-26T16:12:11;25.83;;;15.43;;
21777;SDS011;11050;52.222;20.916;2022-10-26T16:14:38;30.75;;;17.30;;
21777;SDS011;11050;52.222;20.916;2022-10-26T16:17:05;72.55;;;44.88;;
21777;SDS011;11050;52.222;20.916;2022-10-26T16:19:31;42.15;;;26.10;;
21777;SDS011;11050;52.222;20.916;2022-10-26T16:21:58;32.13;;;19.20;;
21777;SDS011;11050;52.222;20.916;2022-10-26T16:24:28;30.87;;;19.87;;
21777;SDS011;11050;52.222;20.916;2022-10-26T16:26:55;32.57;;;17.60;;
21777;SDS011;11050;52.222;20.916;2022-10-26T16:29:22;31.50;;;17.02;;
21777;SDS011;11050;52.222;20.916;2022-10-26T16:31:48;36.10;;;17.63;;
21777;SDS011;11050;52.222;20.916;2022-10-26T16:34:13;35.80;;;19.88;;
21777;SDS011;11050;52.222;20.916;2022-10-26T16:36:40;33.92;;;19.17;;
21777;SDS011;11050;52.222;20.916;2022-10-26T16:39:06;32.67;;;19.93;;
21777;SDS011;11050;52.222;20.916;2022-10-26T16:41:34;33.78;;;20.95;;
21777;SDS011;11050;52.222;20.916;2022-10-26T16:44:00;42.10;;;23.77;;
21777;SDS011;11050;52.222;20.916;2022-10-26T16:46:25;34.37;;;19.77;;
21777;SDS011;11050;52.222;20.916;2022-10-26T16:48:51;38.17;;;21.37;;
21777;SDS011;11050;52.222;20.916;2022-10-26T16:51:18;34.53;;;19.73;;
21777;SDS011;11050;52.222;20.916;2022-10-26T16:53:48;45.97;;;23.93;;
21777;SDS011;11050;52.222;20.916;2022-10-26T16:56:21;65.28;;;31.00;;
21777;SDS011;11050;52.222;20.916;2022-10-26T16:58:51;222.07;;;95.87;;
21777;SDS011;11050;52.222;20.916;2022-10-26T17:01:17;147.07;;;64.93;;
21777;SDS011;11050;52.222;20.916;2022-10-26T17:03:45;128.93;;;54.87;;